Time;durP1;ratioP1;P1;durP2;ratioP2;P2;SDS_P1;SDS_P2;PMS_P1;PMS_P2;Temp;Humidity;BMP_temperature;BMP_pressure;BME280_temperature;BME280_humidity;BME280_pressure;Samples;Min_cycle;Max_cycle;Signal;HPM_P1;HPM_P2
2022/08/22 00:02:26;;;;;;;1.80;1.45;;;;;;;19.57;100.00;101402.06;20719387;28;20050;-72
2022/08/22 00:12:39;;;;;;;1.80;1.33;;;;;;;19.56;100.00;101389.56;20732975;28;20153;-73
2022/08/22 00:22:58;;;;;;;2.00;1.10;;;;;;;19.55;100.00;101391.41;20694542;28;20072;-72
2022/08/22 00:33:16;;;;;;;2.83;1.52;;;;;;;19.28;100.00;101343.41;20731057;28;20061;-72
2022/08/22 00:43:30;;;;;;;1.63;1.13;;;;;;;19.54;100.00;101387.00;20788769;28;20049;-72
2022/08/22 00:53:52;;;;;;;2.00;1.20;;;;;;;19.53;99.96;101389.84;20812368;28;20129;-72
2022/08/22 01:04:12;;;;;;;1.55;1.13;;;;;;;19.52;100.00;101391.69;20777336;28;20053;-72
2022/08/22 01:14:28;;;;;;;3.20;1.35;;;;;;;19.51;99.81;101386.41;20707559;28;20042;-74
2022/08/22 01:25:16;;;;;;;1.27;1.10;;;;;;;19.50;99.82;101401.78;20700482;28;20077;-72
2022/08/22 01:35:33;;;;;;;2.28;1.52;;;;;;;19.45;99.81;101395.06;20734017;28;20093;-72
2022/08/22 01:46:05;;;;;;;1.40;1.17;;;;;;;19.49;99.83;101410.88;20704172;28;20137;-72
2022/08/22 01:56:14;;;;;;;1.50;0.95;;;;;;;19.43;99.58;101408.69;20737959;28;20046;-72
2022/08/22 02:06:23;;;;;;;2.05;1.20;;;;;;;19.47;99.74;101412.84;20714014;28;20072;-73
2022/08/22 02:16:36;;;;;;;1.42;1.05;;;;;;;19.45;99.58;101411.25;20720091;28;20119;-72
2022/08/22 02:26:44;;;;;;;2.03;1.15;;;;;;;19.46;99.65;101413.84;20805022;28;20447;-73
2022/08/22 02:36:54;;;;;;;1.60;1.20;;;;;;;19.47;99.55;101407.44;20702255;28;20054;-72
2022/08/22 02:47:07;;;;;;;2.25;1.30;;;;;;;19.03;99.48;101350.09;20693937;28;20088;-77
2022/08/22 02:57:45;;;;;;;2.50;1.50;;;;;;;19.47;100.00;101402.06;20668761;28;20033;-75
2022/08/22 03:08:15;;;;;;;3.17;1.52;;;;;;;19.50;100.00;101407.19;20661173;28;20057;-78
2022/08/22 03:18:30;;;;;;;2.35;1.30;;;;;;;19.50;100.00;101396.38;20696094;28;20045;-75
2022/08/22 03:28:42;;;;;;;2.17;1.53;;;;;;;19.52;100.00;101396.22;20770839;28;20057;-75
2022/08/22 03:39:08;;;;;;;1.67;1.30;;;;;;;19.52;100.00;101399.78;20771754;28;20037;-75
2022/08/22 03:49:32;;;;;;;2.55;1.30;;;;;;;19.52;100.00;101394.41;20781927;28;20053;-73
2022/08/22 04:00:10;;;;;;;2.60;1.33;;;;;;;19.52;99.65;101389.00;20796348;28;20077;-73
2022/08/22 04:10:34;;;;;;;4.15;1.50;;;;;;;19.52;99.49;101394.41;20783562;28;20084;-72
2022/08/22 04:20:44;;;;;;;2.47;1.20;;;;;;;19.52;99.58;101383.59;20793879;28;20049;-73
2022/08/22 04:30:54;;;;;;;1.85;1.38;;;;;;;19.32;99.25;101355.66;20779447;28;20100;-72
2022/08/22 04:41:08;;;;;;;3.25;1.50;;;;;;;19.52;99.27;101398.94;20778605;28;20107;-73
2022/08/22 04:51:22;;;;;;;2.17;1.55;;;;;;;18.93;99.06;101304.13;20741560;28;20139;-73
2022/08/22 05:01:47;;;;;;;2.10;1.30;;;;;;;19.52;99.00;101397.09;20754561;28;20064;-73
2022/08/22 05:11:51;;;;;;;2.63;1.30;;;;;;;19.52;98.91;101409.72;20697788;28;20140;-74
2022/08/22 05:21:54;;;;;;;1.87;1.70;;;;;;;19.44;98.76;101402.28;20692272;28;20140;-73
2022/08/22 05:32:02;;;;;;;2.40;1.30;;;;;;;19.53;99.76;101420.41;20698564;28;20495;-73
2022/08/22 05:42:11;;;;;;;2.83;1.52;;;;;;;19.55;100.00;101418.44;20698971;28;20057;-73
2022/08/22 05:52:37;;;;;;;2.75;1.52;;;;;;;19.58;100.00;101438.88;20694764;28;20132;-73
2022/08/22 06:03:09;;;;;;;4.00;1.98;;;;;;;19.60;100.00;101447.72;20697494;28;20046;-74
2022/08/22 06:13:18;;;;;;;14.52;2.97;;;;;;;19.61;100.00;101443.19;20760521;28;20076;-75
2022/08/22 06:23:30;;;;;;;6.85;2.00;;;;;;;19.60;100.00;101452.28;20702148;28;20057;-74
2022/08/22 06:33:37;;;;;;;10.93;2.10;;;;;;;19.46;100.00;101431.88;20668375;28;20057;-73
2022/08/22 06:43:42;;;;;;;6.30;1.92;;;;;;;19.48;100.00;101440.69;20694858;28;20524;-73
2022/08/22 06:53:48;;;;;;;;;;;;;;;19.54;100.00;101470.72;20703345;28;20056;-74
2022/08/22 07:03:51;;;;;;;;;;;;;;;19.53;100.00;101466.31;20732347;28;20302;-74
2022/08/22 07:13:57;;;;;;;5.75;1.90;;;;;;;19.52;100.00;101461.03;20683451;28;19925;-74
2022/08/22 07:24:00;;;;;;;3.80;1.90;;;;;;;19.48;100.00;101463.16;20703607;28;20048;-74
2022/08/22 07:34:36;;;;;;;5.05;1.92;;;;;;;19.51;100.00;101452.09;20703822;28;20046;-73
2022/08/22 07:44:46;;;;;;;2.85;1.58;;;;;;;19.51;100.00;101457.50;20682740;28;20060;-74
2022/08/22 07:54:56;;;;;;;3.28;1.55;;;;;;;19.51;100.00;101465.59;20690203;28;20149;-73
2022/08/22 08:04:59;;;;;;;3.90;1.60;;;;;;;19.51;100.00;101441.28;20682885;28;20496;-73
2022/08/22 08:15:04;;;;;;;3.15;1.42;;;;;;;19.51;100.00;101435.03;20745600;28;20041;-73
2022/08/22 08:25:06;;;;;;;;;;;;;;;19.52;100.00;101437.59;20714239;28;20069;-73
2022/08/22 08:35:16;;;;;;;2.42;1.50;;;;;;;19.52;100.00;101434.91;20667141;28;20004;-73
2022/08/22 08:45:35;;;;;;;1.50;1.40;;;;;;;19.53;100.00;101428.50;20661282;28;20053;-73
2022/08/22 08:55:46;;;;;;;2.80;1.80;;;;;;;19.41;100.00;101424.16;20658409;28;20049;-73
2022/08/22 09:05:57;;;;;;;2.80;1.45;;;;;;;19.53;100.00;101439.31;20760525;28;20044;-73
2022/08/22 09:16:36;;;;;;;2.50;1.65;;;;;;;19.53;100.00;101425.81;20674289;28;20053;-73
2022/08/22 09:26:53;;;;;;;2.58;1.45;;;;;;;19.55;100.00;101417.56;20676781;28;20053;-74
2022/08/22 09:37:35;;;;;;;2.92;1.55;;;;;;;19.55;100.00;101410.31;20686614;28;20046;-74
2022/08/22 09:47:49;;;;;;;2.90;1.42;;;;;;;19.53;100.00;101390.69;20759195;28;20100;-74
2022/08/22 09:58:01;;;;;;;2.35;1.30;;;;;;;19.56;100.00;101401.22;20787148;28;20045;-74
2022/08/22 10:08:07;;;;;;;2.95;1.40;;;;;;;19.57;100.00;101396.66;20772207;28;20053;-75
2022/08/22 10:18:46;;;;;;;1.88;1.35;;;;;;;19.31;100.00;101358.47;20776219;28;20057;-74
2022/08/22 10:29:01;;;;;;;3.08;1.75;;;;;;;19.57;100.00;101388.56;20774381;28;20056;-74
2022/08/22 10:39:06;;;;;;;1.65;1.50;;;;;;;19.49;100.00;101372.19;20789780;28;20453;-74
2022/08/22 10:49:24;;;;;;;1.52;1.40;;;;;;;19.58;100.00;101400.25;20753308;28;20059;-73
2022/08/22 10:59:45;;;;;;;2.63;1.65;;;;;;;19.60;100.00;101385.59;20758321;28;20045;-73
2022/08/22 11:09:56;;;;;;;3.08;1.65;;;;;;;19.24;100.00;101326.63;20747710;28;20174;-73
2022/08/22 11:20:26;;;;;;;2.92;1.52;;;;;;;19.66;100.00;101387.75;20734046;28;20593;-73
2022/08/22 11:31:10;;;;;;;2.38;1.55;;;;;;;19.53;100.00;101347.50;20706170;28;20506;-73
2022/08/22 11:41:23;;;;;;;2.65;1.50;;;;;;;19.70;100.00;101356.78;20660337;28;20567;-73
2022/08/22 11:51:46;;;;;;;3.90;1.60;;;;;;;19.70;100.00;101348.69;20675304;28;20414;-74
2022/08/22 12:01:54;;;;;;;2.43;1.60;;;;;;;19.71;100.00;101333.31;20691946;28;20148;-75
2022/08/22 12:12:18;;;;;;;2.67;1.75;;;;;;;19.70;100.00;101331.63;20735958;28;20054;-73
2022/08/22 12:22:43;;;;;;;2.75;1.80;;;;;;;19.54;100.00;101306.00;20675189;28;20462;-73
2022/08/22 12:33:09;;;;;;;2.28;1.38;;;;;;;19.71;100.00;101325.22;20675662;28;20072;-73
2022/08/22 12:43:50;;;;;;;3.60;1.30;;;;;;;19.70;100.00;101318.09;20757924;28;20041;-74
2022/08/22 12:54:12;;;;;;;2.03;1.45;;;;;;;19.70;100.00;101299.19;20680908;28;20507;-74
2022/08/22 13:04:17;;;;;;;3.30;1.60;;;;;;;19.70;100.00;101291.97;20727385;28;20513;-74
2022/08/22 13:14:33;;;;;;;2.67;1.45;;;;;;;19.70;100.00;101280.28;20724011;28;20411;-73
2022/08/22 13:24:49;;;;;;;2.70;1.60;;;;;;;19.70;100.00;101283.00;20744736;28;20050;-74
2022/08/22 13:34:55;;;;;;;3.53;1.55;;;;;;;19.60;100.00;101268.63;20749986;28;20049;-74
2022/08/22 13:45:00;;;;;;;2.83;1.60;;;;;;;19.69;100.00;101276.75;20708847;28;20053;-73
2022/08/22 13:55:12;;;;;;;2.35;1.30;;;;;;;19.53;100.00;101246.72;20669537;28;20052;-73
2022/08/22 14:05:24;;;;;;;2.05;1.50;;;;;;;19.70;100.00;101261.38;20698823;28;20052;-73
2022/08/22 14:15:29;;;;;;;2.85;1.50;;;;;;;19.63;100.00;101252.13;20671354;28;20081;-74
2022/08/22 14:25:46;;;;;;;1.58;1.23;;;;;;;19.64;100.00;101230.38;20733300;28;20056;-73
2022/08/22 14:35:52;;;;;;;1.67;1.45;;;;;;;19.70;100.00;101242.47;20778729;28;20151;-74
2022/08/22 14:45:56;;;;;;;2.75;1.65;;;;;;;19.71;100.00;101225.28;20724666;28;20042;-73
2022/08/22 14:56:02;;;;;;;3.63;1.50;;;;;;;19.70;100.00;101226.28;20656985;28;20080;-73
2022/08/22 15:06:36;;;;;;;2.17;1.35;;;;;;;19.69;100.00;101221.88;20685013;28;20077;-73
2022/08/22 15:17:07;;;;;;;2.03;1.70;;;;;;;19.69;100.00;101217.34;20660316;28;20062;-73
2022/08/22 15:27:09;;;;;;;2.10;1.33;;;;;;;19.68;100.00;101206.66;20774213;28;20068;-73
2022/08/22 15:37:17;;;;;;;2.63;1.55;;;;;;;19.68;100.00;101204.81;20741533;28;20494;-73
2022/08/22 15:47:38;;;;;;;2.00;1.40;;;;;;;19.68;100.00;101198.56;20749454;28;20060;-72
2022/08/22 15:57:48;;;;;;;3.03;1.80;;;;;;;19.67;100.00;101191.44;20739365;28;22622;-73
2022/08/22 16:07:57;;;;;;;3.05;1.67;;;;;;;19.65;100.00;101191.56;20714286;28;20129;-73
2022/08/22 16:17:58;;;;;;;2.13;1.65;;;;;;;19.65;100.00;101182.63;20758608;28;20050;-73
2022/08/22 16:28:00;;;;;;;3.03;1.75;;;;;;;19.66;100.00;101178.94;20760578;28;20124;-72
2022/08/22 16:38:01;;;;;;;2.88;1.83;;;;;;;19.65;100.00;101172.66;20692342;28;20081;-73
2022/08/22 16:48:15;;;;;;;4.60;2.00;;;;;;;19.65;100.00;101167.25;20682223;28;20112;-73
2022/08/22 16:58:41;;;;;;;2.75;1.90;;;;;;;19.66;100.00;101179.75;20731557;28;20048;-73
2022/08/22 17:09:25;;;;;;;4.10;2.30;;;;;;;19.66;100.00;101170.81;20760906;28;20053;-73
2022/08/22 17:19:38;;;;;;;3.55;1.98;;;;;;;19.65;100.00;101164.56;20693404;28;20116;-74
2022/08/22 17:29:59;;;;;;;4.45;2.30;;;;;;;19.66;100.00;101168.13;20703354;28;20078;-73
2022/08/22 17:40:15;;;;;;;4.72;1.90;;;;;;;19.64;100.00;101173.66;20753938;28;20103;-73
2022/08/22 17:50:42;;;;;;;3.03;2.13;;;;;;;19.65;100.00;101177.22;20766512;28;20053;-74
2022/08/22 18:00:53;;;;;;;3.58;2.70;;;;;;;19.64;100.00;101181.75;20683658;28;20046;-74
2022/08/22 18:11:11;;;;;;;3.70;2.20;;;;;;;19.62;100.00;101181.06;20673429;28;20445;-73
2022/08/22 18:21:26;;;;;;;2.72;1.80;;;;;;;19.51;100.00;101171.25;20663649;28;20053;-74
2022/08/22 18:31:50;;;;;;;3.88;2.00;;;;;;;19.62;100.00;101199.94;20741309;28;20159;-75
2022/08/22 18:41:59;;;;;;;3.55;2.10;;;;;;;19.61;100.00;101203.66;20685254;28;20054;-75
2022/08/22 18:52:04;;;;;;;2.42;2.05;;;;;;;19.62;100.00;101213.47;20692205;28;20065;-75
2022/08/22 19:02:36;;;;;;;3.15;1.95;;;;;;;19.61;100.00;101209.06;20723756;28;20049;-75
2022/08/22 19:13:02;;;;;;;3.63;1.92;;;;;;;19.61;100.00;101229.81;20782183;28;20115;-75
2022/08/22 19:23:35;;;;;;;2.67;2.05;;;;;;;19.60;100.00;101226.25;20731799;28;20048;-75
2022/08/22 19:33:39;;;;;;;2.88;1.95;;;;;;;19.60;100.00;101231.66;20637397;28;20050;-75
2022/08/22 19:43:42;;;;;;;3.13;1.90;;;;;;;19.59;100.00;101231.81;20685012;28;20063;-75
2022/08/22 19:54:15;;;;;;;2.65;1.83;;;;;;;19.59;100.00;101239.91;20663714;28;20702;-75
2022/08/22 20:04:39;;;;;;;2.47;1.92;;;;;;;19.58;100.00;101230.94;20717628;28;20507;-75
2022/08/22 20:14:42;;;;;;;2.42;1.90;;;;;;;19.58;100.00;101225.53;20686276;28;20054;-75
2022/08/22 20:25:10;;;;;;;2.90;2.10;;;;;;;19.56;100.00;101225.69;20767535;28;20045;-75
2022/08/22 20:35:36;;;;;;;2.88;2.10;;;;;;;19.56;100.00;101223.00;20817424;28;20068;-75
2022/08/22 20:45:49;;;;;;;2.53;1.92;;;;;;;19.57;100.00;101218.44;20768412;28;20052;-75
2022/08/22 20:55:56;;;;;;;2.87;2.00;;;;;;;19.56;100.00;101214.88;20755871;28;20037;-75
2022/08/22 21:06:08;;;;;;;;;;;;;;;19.55;100.00;101210.47;20771252;28;20041;-75
2022/08/22 21:16:17;;;;;;;2.15;1.85;;;;;;;19.55;100.00;101206.91;20798319;28;19921;-75
2022/08/22 21:26:22;;;;;;;2.92;1.85;;;;;;;19.54;100.00;101205.22;20708173;28;20050;-75
2022/08/22 21:36:27;;;;;;;3.70;1.90;;;;;;;19.23;100.00;101157.56;20714360;28;20453;-75
2022/08/22 21:46:29;;;;;;;;;;;;;;;19.54;100.00;101203.38;20686057;28;20077;-75
2022/08/22 21:56:30;;;;;;;2.53;1.70;;;;;;;19.52;100.00;101202.66;20698874;28;19957;-75
2022/08/22 22:06:32;;;;;;;2.42;1.80;;;;;;;19.52;100.00;101210.75;20720702;28;20050;-75
2022/08/22 22:16:33;;;;;;;2.47;1.85;;;;;;;19.52;100.00;101202.66;20721590;28;20050;-75
2022/08/22 22:26:35;;;;;;;3.10;1.92;;;;;;;19.51;100.00;101200.97;20720501;28;20050;-75
2022/08/22 22:36:37;;;;;;;2.72;2.00;;;;;;;19.51;100.00;101184.75;20701941;28;20073;-75
2022/08/22 22:46:38;;;;;;;3.10;1.67;;;;;;;19.52;100.00;101182.88;20716513;28;20080;-75
2022/08/22 22:56:40;;;;;;;1.90;1.70;;;;;;;19.36;100.00;101167.22;20713747;28;20053;-76
2022/08/22 23:06:42;;;;;;;2.90;2.10;;;;;;;19.49;100.00;101178.66;20717990;28;20054;-76
2022/08/22 23:16:43;;;;;;;2.38;1.83;;;;;;;19.35;100.00;101165.53;20715910;28;20111;-75
2022/08/22 23:26:45;;;;;;;2.75;1.70;;;;;;;19.49;100.00;101189.44;20764998;28;20075;-75
2022/08/22 23:36:47;;;;;;;2.25;1.80;;;;;;;19.49;100.00;101183.19;20678683;28;20071;-75
2022/08/22 23:46:50;;;;;;;1.70;1.60;;;;;;;19.32;100.00;101157.72;20692223;28;20116;-75
2022/08/22 23:56:54;;;;;;;1.60;1.50;;;;;;;19.48;100.00;101179.63;20695931;28;20494;-75
